createdAt,value
2022-08-19T00:00:55.941Z,0.00
2022-08-19T00:01:55.942Z,0.00
2022-08-19T00:02:55.954Z,0.00
2022-08-19T00:03:55.919Z,0.00
2022-08-19T00:04:55.930Z,0.00
2022-08-19T00:05:55.909Z,0.00
2022-08-19T00:06:55.883Z,0.00
2022-08-19T00:07:55.873Z,0.00
2022-08-19T00:08:55.872Z,0.00
2022-08-19T00:09:56.899Z,0.00
2022-08-19T00:10:55.864Z,0.00
2022-08-19T00:11:55.844Z,0.00
2022-08-19T00:12:55.864Z,0.00
2022-08-19T00:13:56.354Z,0.00
2022-08-19T00:14:55.827Z,0.00
2022-08-19T00:15:55.783Z,0.00
2022-08-19T00:16:55.848Z,0.00
2022-08-19T00:17:55.773Z,0.00
2022-08-19T00:18:55.754Z,0.00
2022-08-19T00:19:55.770Z,0.00
2022-08-19T00:20:55.764Z,0.00
2022-08-19T00:21:55.727Z,0.00
2022-08-19T00:22:55.723Z,0.00
2022-08-19T00:23:55.706Z,0.00
2022-08-19T00:24:55.709Z,0.00
2022-08-19T00:25:55.717Z,0.00
2022-08-19T00:26:55.676Z,0.00
2022-08-19T00:27:55.668Z,0.00
2022-08-19T00:28:55.657Z,0.00
2022-08-19T00:29:55.652Z,0.00
2022-08-19T00:30:55.652Z,0.00
2022-08-19T00:31:55.641Z,0.00
2022-08-19T00:32:55.613Z,0.00
2022-08-19T00:33:55.613Z,0.00
2022-08-19T00:34:55.592Z,0.00
2022-08-19T00:35:56.196Z,0.00
2022-08-19T00:36:55.603Z,0.00
2022-08-19T00:37:55.557Z,0.00
2022-08-19T00:38:55.553Z,0.00
2022-08-19T00:39:55.597Z,0.00
2022-08-19T00:40:55.541Z,0.00
2022-08-19T00:41:55.546Z,0.00
2022-08-19T00:42:55.521Z,0.00
2022-08-19T00:43:55.510Z,0.00
2022-08-19T00:44:55.514Z,0.00
2022-08-19T00:45:55.492Z,0.00
2022-08-19T00:46:58.132Z,0.00
2022-08-19T00:47:55.485Z,0.00
2022-08-19T00:48:55.471Z,0.00
2022-08-19T00:49:55.454Z,0.00
2022-08-19T00:50:55.435Z,0.00
2022-08-19T00:51:55.441Z,0.00
2022-08-19T00:52:55.408Z,0.00
2022-08-19T00:53:55.394Z,0.00
2022-08-19T00:54:55.420Z,0.00
2022-08-19T00:55:55.380Z,0.00
2022-08-19T00:56:55.372Z,0.00
2022-08-19T00:57:55.376Z,0.00
2022-08-19T00:59:56.152Z,0.00
2022-08-19T01:00:02.438Z,0.00
2022-08-19T01:00:56.383Z,0.00
2022-08-19T01:01:55.385Z,0.00
2022-08-19T01:02:55.426Z,0.00
2022-08-19T01:03:58.218Z,0.00
2022-08-19T01:04:55.293Z,0.00
2022-08-19T01:05:55.293Z,0.00
2022-08-19T01:06:55.291Z,0.00
2022-08-19T01:07:55.263Z,0.00
2022-08-19T01:08:55.257Z,0.00
2022-08-19T01:09:55.249Z,0.00
2022-08-19T01:10:55.252Z,0.00
2022-08-19T01:11:55.217Z,0.00
2022-08-19T01:12:55.209Z,0.00
2022-08-19T01:13:55.198Z,0.00
2022-08-19T01:14:55.187Z,0.00
2022-08-19T01:15:55.198Z,0.00
2022-08-19T01:16:55.185Z,0.00
2022-08-19T01:17:55.186Z,0.00
2022-08-19T01:18:55.150Z,0.00
2022-08-19T01:19:55.168Z,0.00
2022-08-19T01:20:55.153Z,0.00
2022-08-19T01:21:55.127Z,0.00
2022-08-19T01:22:55.118Z,0.00
2022-08-19T01:23:55.142Z,0.00
2022-08-19T01:24:55.309Z,0.00
2022-08-19T01:25:55.087Z,0.00
2022-08-19T01:26:55.084Z,0.00
2022-08-19T01:27:55.055Z,0.00
2022-08-19T01:28:58.347Z,0.00
2022-08-19T01:29:56.050Z,0.00
2022-08-19T01:30:55.037Z,0.00
2022-08-19T01:31:55.023Z,0.00
2022-08-19T01:32:55.152Z,0.00
2022-08-19T01:33:55.008Z,0.00
2022-08-19T01:34:54.984Z,0.00
2022-08-19T01:35:54.990Z,0.00
2022-08-19T01:36:54.975Z,0.00
2022-08-19T01:37:54.977Z,0.00
2022-08-19T01:38:54.956Z,0.00
2022-08-19T01:39:55.002Z,0.00
2022-08-19T01:40:54.943Z,0.00
2022-08-19T01:41:54.918Z,0.00
2022-08-19T01:42:55.183Z,0.00
2022-08-19T01:44:03.266Z,0.00
2022-08-19T01:44:54.938Z,0.00
2022-08-19T01:45:54.889Z,0.00
2022-08-19T01:46:54.891Z,0.00
2022-08-19T01:48:01.504Z,0.00
2022-08-19T01:48:54.862Z,0.00
2022-08-19T01:49:54.846Z,0.00
2022-08-19T01:50:54.878Z,0.00
2022-08-19T01:51:54.853Z,0.00
2022-08-19T01:52:54.838Z,0.00
2022-08-19T01:53:54.798Z,0.00
2022-08-19T01:54:54.826Z,0.00
2022-08-19T01:55:54.785Z,0.00
2022-08-19T01:56:54.777Z,0.00
2022-08-19T01:57:54.769Z,0.00
2022-08-19T01:58:54.753Z,0.00
2022-08-19T01:59:54.759Z,0.00
2022-08-19T02:00:54.724Z,0.00
2022-08-19T02:01:54.722Z,0.00
2022-08-19T02:02:54.918Z,0.00
2022-08-19T02:03:54.704Z,0.00
2022-08-19T02:04:54.713Z,0.00
2022-08-19T02:05:54.684Z,0.00
2022-08-19T02:06:54.683Z,0.00
2022-08-19T02:07:54.676Z,0.00
2022-08-19T02:08:57.450Z,0.00
2022-08-19T02:09:54.645Z,0.00
2022-08-19T02:10:54.624Z,0.00
2022-08-19T02:11:54.641Z,0.00
2022-08-19T02:12:54.863Z,0.00
2022-08-19T02:13:54.602Z,0.00
2022-08-19T02:14:54.595Z,0.00
2022-08-19T02:15:54.592Z,0.00
2022-08-19T02:16:54.586Z,0.00
2022-08-19T02:17:54.566Z,0.00
2022-08-19T02:18:54.559Z,0.00
2022-08-19T02:19:54.554Z,0.00
2022-08-19T02:20:54.543Z,0.00
2022-08-19T02:21:54.519Z,0.00
2022-08-19T02:22:54.715Z,0.00
2022-08-19T02:23:54.504Z,0.00
2022-08-19T02:24:54.517Z,0.00
2022-08-19T02:25:54.499Z,0.00
2022-08-19T02:26:54.474Z,0.00
2022-08-19T02:27:54.464Z,0.00
2022-08-19T02:28:54.452Z,0.00
2022-08-19T02:29:54.463Z,0.00
2022-08-19T02:30:54.442Z,0.00
2022-08-19T02:31:54.431Z,0.00
2022-08-19T02:32:54.462Z,0.00
2022-08-19T02:33:56.551Z,0.00
2022-08-19T02:34:54.428Z,0.00
2022-08-19T02:35:54.429Z,0.00
2022-08-19T02:36:54.398Z,0.00
2022-08-19T02:37:54.364Z,0.00
2022-08-19T02:38:55.529Z,0.00
2022-08-19T02:39:54.373Z,0.00
2022-08-19T02:40:54.359Z,0.00
2022-08-19T02:41:54.351Z,0.00
2022-08-19T02:42:54.521Z,0.00
2022-08-19T02:44:30.284Z,0.00
2022-08-19T02:44:55.313Z,0.00
2022-08-19T02:45:54.288Z,0.00
2022-08-19T02:46:54.279Z,0.00
2022-08-19T02:47:55.293Z,0.00
2022-08-19T02:48:54.292Z,0.00
2022-08-19T02:49:54.267Z,0.00
2022-08-19T02:50:54.241Z,0.00
2022-08-19T02:51:54.235Z,0.00
2022-08-19T02:52:54.375Z,0.00
2022-08-19T02:53:54.222Z,0.00
2022-08-19T02:54:54.227Z,0.00
2022-08-19T02:55:54.187Z,0.00
2022-08-19T02:56:54.212Z,0.00
2022-08-19T02:57:54.173Z,0.00
2022-08-19T02:58:54.154Z,0.00
2022-08-19T02:59:54.149Z,0.00
2022-08-19T03:00:54.275Z,0.00
2022-08-19T03:01:54.157Z,0.00
2022-08-19T03:02:54.366Z,0.00
2022-08-19T03:03:54.116Z,0.00
2022-08-19T03:04:54.125Z,0.00
2022-08-19T03:05:56.984Z,0.00
2022-08-19T03:06:54.081Z,0.00
2022-08-19T03:07:54.076Z,0.00
2022-08-19T03:08:54.064Z,0.00
2022-08-19T03:09:54.064Z,0.00
2022-08-19T03:10:54.186Z,0.00
2022-08-19T03:11:54.055Z,0.00
2022-08-19T03:12:54.207Z,0.00
2022-08-19T03:13:54.014Z,0.00
2022-08-19T03:14:54.017Z,0.00
2022-08-19T03:15:54.043Z,0.00
2022-08-19T03:16:54.034Z,0.00
2022-08-19T03:17:53.988Z,0.00
2022-08-19T03:18:53.969Z,0.00
2022-08-19T03:19:54.001Z,0.00
2022-08-19T03:20:53.946Z,0.00
2022-08-19T03:21:53.944Z,0.00
2022-08-19T03:22:54.111Z,0.00
2022-08-19T03:23:53.918Z,0.00
2022-08-19T03:24:53.931Z,0.00
2022-08-19T03:26:03.042Z,0.00
2022-08-19T03:26:54.900Z,0.00
2022-08-19T03:27:53.879Z,0.00
2022-08-19T03:28:58.618Z,0.00
2022-08-19T03:29:54.874Z,0.00
2022-08-19T03:30:53.845Z,0.00
2022-08-19T03:31:53.832Z,0.00
2022-08-19T03:32:57.307Z,0.00
2022-08-19T03:33:53.814Z,0.00
2022-08-19T03:34:53.838Z,0.00
2022-08-19T03:35:53.815Z,0.00
2022-08-19T03:36:53.786Z,0.00
2022-08-19T03:37:53.771Z,0.00
2022-08-19T03:38:56.384Z,0.00
2022-08-19T03:39:54.798Z,0.00
2022-08-19T03:40:53.747Z,0.00
2022-08-19T03:42:33.167Z,0.00
2022-08-19T03:42:54.727Z,0.00
2022-08-19T03:43:53.714Z,0.00
2022-08-19T03:44:53.707Z,0.00
2022-08-19T03:45:53.739Z,0.00
2022-08-19T03:46:53.703Z,0.00
2022-08-19T03:47:53.687Z,0.00
2022-08-19T03:48:53.680Z,0.00
2022-08-19T03:49:53.680Z,0.00
2022-08-19T03:50:53.663Z,0.00
2022-08-19T03:51:53.634Z,0.00
2022-08-19T03:52:53.907Z,0.00
2022-08-19T03:53:53.620Z,0.00
2022-08-19T03:54:54.611Z,0.00
2022-08-19T03:55:53.604Z,0.00
2022-08-19T03:56:53.584Z,0.00
2022-08-19T03:57:58.621Z,0.00
2022-08-19T03:58:55.589Z,0.00
2022-08-19T03:59:53.557Z,0.00
2022-08-19T04:00:53.621Z,0.00
2022-08-19T04:01:53.546Z,0.00
2022-08-19T04:02:58.438Z,0.00
2022-08-19T04:03:54.551Z,0.00
2022-08-19T04:04:53.522Z,0.00
2022-08-19T04:05:53.506Z,0.00
2022-08-19T04:06:53.545Z,0.00
2022-08-19T04:07:53.479Z,0.00
2022-08-19T04:08:53.473Z,0.00
2022-08-19T04:09:53.464Z,0.00
2022-08-19T04:10:53.457Z,0.00
2022-08-19T04:11:53.465Z,0.00
2022-08-19T04:12:53.689Z,0.00
2022-08-19T04:13:53.435Z,0.00
2022-08-19T04:14:53.413Z,0.00
2022-08-19T04:15:53.409Z,0.00
2022-08-19T04:16:53.402Z,0.00
2022-08-19T04:17:53.422Z,0.00
2022-08-19T04:18:53.374Z,0.00
2022-08-19T04:19:53.372Z,0.00
2022-08-19T04:20:53.358Z,0.00
2022-08-19T04:21:53.355Z,0.00
2022-08-19T04:22:53.536Z,0.00
2022-08-19T04:23:53.328Z,0.00
2022-08-19T04:24:53.317Z,0.00
2022-08-19T04:25:53.312Z,0.00
2022-08-19T04:26:53.303Z,0.00
2022-08-19T04:27:53.300Z,0.00
2022-08-19T04:28:53.279Z,0.00
2022-08-19T04:29:53.291Z,0.00
2022-08-19T04:30:53.256Z,0.00
2022-08-19T04:31:53.268Z,0.00
2022-08-19T04:32:53.372Z,0.00
2022-08-19T04:33:53.214Z,5.62
2022-08-19T04:35:01.208Z,5.62
2022-08-19T04:35:53.198Z,5.62
2022-08-19T04:36:53.201Z,5.62
2022-08-19T04:37:53.188Z,5.62
2022-08-19T04:38:53.161Z,11.25
2022-08-19T04:39:53.200Z,11.25
2022-08-19T04:40:54.173Z,11.25
2022-08-19T04:41:53.149Z,11.25
2022-08-19T04:42:53.268Z,11.25
2022-08-19T04:43:53.129Z,11.25
2022-08-19T04:44:53.106Z,16.88
2022-08-19T04:45:53.091Z,16.88
2022-08-19T04:46:53.101Z,16.88
2022-08-19T04:47:58.914Z,16.88
2022-08-19T04:48:54.061Z,22.50
2022-08-19T04:49:53.065Z,22.50
2022-08-19T04:50:53.052Z,28.12
2022-08-19T04:51:53.035Z,28.12
2022-08-19T04:52:53.156Z,33.75
2022-08-19T04:53:53.044Z,39.38
2022-08-19T04:54:53.005Z,39.38
2022-08-19T04:55:52.990Z,45.00
2022-08-19T04:56:52.993Z,50.62
2022-08-19T04:57:52.976Z,50.62
2022-08-19T04:58:52.997Z,56.25
2022-08-19T04:59:52.967Z,61.88
2022-08-19T05:00:53.015Z,61.88
2022-08-19T05:01:52.943Z,61.88
2022-08-19T05:02:53.067Z,61.88
2022-08-19T05:03:52.933Z,61.88
2022-08-19T05:04:52.921Z,61.88
2022-08-19T05:05:52.896Z,61.88
2022-08-19T05:06:52.913Z,56.25
2022-08-19T05:07:52.886Z,56.25
2022-08-19T05:08:52.871Z,56.25
2022-08-19T05:09:58.215Z,56.25
2022-08-19T05:10:52.850Z,56.25
2022-08-19T05:11:52.837Z,56.25
2022-08-19T05:12:53.007Z,56.25
2022-08-19T05:13:52.823Z,56.25
2022-08-19T05:14:52.842Z,56.25
2022-08-19T05:15:52.800Z,61.88
2022-08-19T05:17:06.435Z,61.88
2022-08-19T05:17:54.775Z,67.50
2022-08-19T05:18:52.768Z,73.12
2022-08-19T05:19:52.767Z,73.12
2022-08-19T05:20:52.776Z,78.75
2022-08-19T05:21:52.736Z,84.38
2022-08-19T05:22:52.858Z,90.00
2022-08-19T05:23:52.717Z,90.00
2022-08-19T05:25:11.745Z,95.62
2022-08-19T05:25:54.731Z,101.25
2022-08-19T05:26:52.695Z,101.25
2022-08-19T05:27:52.695Z,106.88
2022-08-19T05:28:54.731Z,101.25
2022-08-19T05:29:53.663Z,101.25
2022-08-19T05:30:52.678Z,101.25
2022-08-19T05:31:52.654Z,101.25
2022-08-19T05:32:54.045Z,95.62
2022-08-19T05:33:52.622Z,95.62
2022-08-19T05:34:52.645Z,95.62
2022-08-19T05:35:52.606Z,95.62
2022-08-19T05:36:52.592Z,95.62
2022-08-19T05:37:54.867Z,95.62
2022-08-19T05:38:52.589Z,95.62
2022-08-19T05:39:52.584Z,95.62
2022-08-19T05:40:52.544Z,95.62
2022-08-19T05:41:52.556Z,95.62
2022-08-19T05:42:54.786Z,95.62
2022-08-19T05:43:52.514Z,90.00
2022-08-19T05:44:52.519Z,90.00
2022-08-19T05:45:52.523Z,90.00
2022-08-19T05:46:52.495Z,90.00
2022-08-19T05:47:52.486Z,90.00
2022-08-19T05:48:52.461Z,90.00
2022-08-19T05:49:52.475Z,90.00
2022-08-19T05:50:52.491Z,90.00
2022-08-19T05:51:52.434Z,90.00
2022-08-19T05:52:52.538Z,90.00
2022-08-19T05:53:52.424Z,90.00
2022-08-19T05:54:52.413Z,84.38
2022-08-19T05:55:52.397Z,84.38
2022-08-19T05:56:52.411Z,90.00
2022-08-19T05:57:52.376Z,90.00
2022-08-19T05:58:52.375Z,90.00
2022-08-19T05:59:57.876Z,90.00
2022-08-19T06:00:52.345Z,95.62
2022-08-19T06:01:52.363Z,101.25
2022-08-19T06:02:52.616Z,101.25
2022-08-19T06:03:52.304Z,106.88
2022-08-19T06:04:52.289Z,112.50
2022-08-19T06:05:53.289Z,112.50
2022-08-19T06:06:52.306Z,118.12
2022-08-19T06:07:52.321Z,118.12
2022-08-19T06:08:52.275Z,123.75
2022-08-19T06:09:59.983Z,129.38
2022-08-19T06:10:53.244Z,135.00
2022-08-19T06:11:55.752Z,135.00
2022-08-19T06:12:53.211Z,135.00
2022-08-19T06:13:52.234Z,140.62
2022-08-19T06:14:56.032Z,146.25
2022-08-19T06:15:53.215Z,151.88
2022-08-19T06:16:52.186Z,157.50
2022-08-19T06:17:52.232Z,168.75
2022-08-19T06:18:52.183Z,174.38
2022-08-19T06:19:52.152Z,185.62
2022-08-19T06:20:55.897Z,196.88
2022-08-19T06:21:52.129Z,213.75
2022-08-19T06:22:52.118Z,225.00
2022-08-19T06:23:52.132Z,241.88
2022-08-19T06:24:52.102Z,258.75
2022-08-19T06:25:52.099Z,270.00
2022-08-19T06:26:52.116Z,292.50
2022-08-19T06:28:13.964Z,309.38
2022-08-19T06:28:54.084Z,309.38
2022-08-19T06:29:52.054Z,309.38
2022-08-19T06:30:52.037Z,309.38
2022-08-19T06:31:52.048Z,315.00
2022-08-19T06:32:52.045Z,320.62
2022-08-19T06:33:52.012Z,320.62
2022-08-19T06:34:51.998Z,315.00
2022-08-19T06:35:51.988Z,315.00
2022-08-19T06:36:51.979Z,309.38
2022-08-19T06:37:52.012Z,292.50
2022-08-19T06:38:51.960Z,286.88
2022-08-19T06:39:52.063Z,281.25
2022-08-19T06:40:51.940Z,275.62
2022-08-19T06:41:55.420Z,270.00
2022-08-19T06:42:54.701Z,264.38
2022-08-19T06:43:54.123Z,264.38
2022-08-19T06:44:53.093Z,281.25
2022-08-19T06:45:51.870Z,309.38
2022-08-19T06:46:53.543Z,388.12
2022-08-19T06:47:51.874Z,303.75
2022-08-19T06:48:51.885Z,320.62
2022-08-19T06:49:51.847Z,320.62
2022-08-19T06:50:51.831Z,298.12
2022-08-19T06:51:51.972Z,303.75
2022-08-19T06:52:51.834Z,320.62
2022-08-19T06:54:55.921Z,371.25
2022-08-19T06:55:51.797Z,382.50
2022-08-19T06:56:51.809Z,382.50
2022-08-19T06:57:52.016Z,382.50
2022-08-19T06:59:23.653Z,388.12
2022-08-19T06:59:51.781Z,405.00
2022-08-19T07:00:51.748Z,427.50
2022-08-19T07:01:51.749Z,444.38
2022-08-19T07:02:56.133Z,450.00
2022-08-19T07:03:52.705Z,438.75
2022-08-19T07:04:52.761Z,416.25
2022-08-19T07:05:51.684Z,388.12
2022-08-19T07:06:55.098Z,337.50
2022-08-19T07:07:51.668Z,292.50
2022-08-19T07:08:51.668Z,264.38
2022-08-19T07:09:58.607Z,241.88
2022-08-19T07:10:52.654Z,230.62
2022-08-19T07:11:51.627Z,219.38
2022-08-19T07:12:51.691Z,213.75
2022-08-19T07:13:51.621Z,208.12
2022-08-19T07:14:51.609Z,202.50
2022-08-19T07:15:51.584Z,196.88
2022-08-19T07:16:51.621Z,196.88
2022-08-19T07:17:52.464Z,196.88
2022-08-19T07:18:51.567Z,208.12
2022-08-19T07:19:51.556Z,219.38
2022-08-19T07:20:51.571Z,236.25
2022-08-19T07:21:51.534Z,253.12
2022-08-19T07:22:51.550Z,270.00
2022-08-19T07:23:51.526Z,270.00
2022-08-19T07:24:51.846Z,270.00
2022-08-19T07:25:53.064Z,270.00
2022-08-19T07:26:51.934Z,264.38
2022-08-19T07:27:54.382Z,258.75
2022-08-19T07:28:52.862Z,253.12
2022-08-19T07:29:56.025Z,253.12
2022-08-19T07:30:51.440Z,253.12
2022-08-19T07:31:51.430Z,253.12
2022-08-19T07:32:51.440Z,264.38
2022-08-19T07:33:51.420Z,270.00
2022-08-19T07:34:51.398Z,281.25
2022-08-19T07:35:51.412Z,292.50
2022-08-19T07:36:51.387Z,315.00
2022-08-19T07:37:51.369Z,343.12
2022-08-19T07:38:51.369Z,365.62
2022-08-19T07:39:51.402Z,393.75
2022-08-19T07:40:51.349Z,416.25
2022-08-19T07:41:51.334Z,427.50
2022-08-19T07:42:51.323Z,433.12
2022-08-19T07:43:51.320Z,433.12
2022-08-19T07:44:51.309Z,433.12
2022-08-19T07:45:51.302Z,433.12
2022-08-19T07:46:53.199Z,433.12
2022-08-19T07:47:51.456Z,433.12
2022-08-19T07:48:51.265Z,433.12
2022-08-19T07:49:51.276Z,438.75
2022-08-19T07:50:51.284Z,455.62
2022-08-19T07:51:51.223Z,461.25
2022-08-19T07:52:51.217Z,466.88
2022-08-19T07:53:51.214Z,466.88
2022-08-19T07:54:51.225Z,466.88
2022-08-19T07:55:51.207Z,461.25
2022-08-19T07:56:51.204Z,450.00
2022-08-19T07:57:51.179Z,438.75
2022-08-19T07:58:51.207Z,421.88
2022-08-19T07:59:51.144Z,410.62
2022-08-19T08:00:51.164Z,399.38
2022-08-19T08:01:51.227Z,388.12
2022-08-19T08:02:51.115Z,382.50
2022-08-19T08:03:51.137Z,376.88
2022-08-19T08:04:51.100Z,376.88
2022-08-19T08:05:51.089Z,376.88
2022-08-19T08:06:51.078Z,371.25
2022-08-19T08:07:51.067Z,348.75
2022-08-19T08:08:51.082Z,326.25
2022-08-19T08:09:51.121Z,303.75
2022-08-19T08:10:54.647Z,286.88
2022-08-19T08:11:52.032Z,275.62
2022-08-19T08:13:09.634Z,275.62
2022-08-19T08:14:00.367Z,275.62
2022-08-19T08:14:52.005Z,281.25
2022-08-19T08:15:52.207Z,281.25
2022-08-19T08:16:50.999Z,281.25
2022-08-19T08:17:51.748Z,281.25
2022-08-19T08:18:53.232Z,281.25
2022-08-19T08:19:50.964Z,286.88
2022-08-19T08:20:50.942Z,286.88
2022-08-19T08:21:50.948Z,292.50
2022-08-19T08:22:50.925Z,298.12
2022-08-19T08:23:54.363Z,303.75
2022-08-19T08:24:51.933Z,309.38
2022-08-19T08:25:50.883Z,309.38
2022-08-19T08:26:52.000Z,315.00
2022-08-19T08:27:51.010Z,315.00
2022-08-19T08:28:50.891Z,320.62
2022-08-19T08:29:50.864Z,331.88
2022-08-19T08:30:50.942Z,348.75
2022-08-19T08:31:59.599Z,360.00
2022-08-19T08:32:51.841Z,371.25
2022-08-19T08:33:50.819Z,376.88
2022-08-19T08:34:52.394Z,382.50
2022-08-19T08:35:51.793Z,382.50
2022-08-19T08:36:50.791Z,382.50
2022-08-19T08:37:51.346Z,382.50
2022-08-19T08:39:50.873Z,382.50
2022-08-19T08:40:50.736Z,382.50
2022-08-19T08:41:51.731Z,388.12
2022-08-19T08:42:50.735Z,388.12
2022-08-19T08:43:50.730Z,399.38
2022-08-19T08:44:50.757Z,410.62
2022-08-19T08:45:53.515Z,427.50
2022-08-19T08:46:52.869Z,450.00
2022-08-19T08:47:50.747Z,478.12
2022-08-19T08:48:52.785Z,495.00
2022-08-19T08:49:51.311Z,511.88
2022-08-19T08:50:50.636Z,523.12
2022-08-19T08:51:59.530Z,534.38
2022-08-19T08:52:51.699Z,540.00
2022-08-19T08:53:51.620Z,545.62
2022-08-19T08:54:55.188Z,551.25
2022-08-19T08:55:50.590Z,562.50
2022-08-19T08:56:51.534Z,579.38
2022-08-19T08:57:50.585Z,596.25
2022-08-19T08:58:54.464Z,607.50
2022-08-19T08:59:51.582Z,618.75
2022-08-19T09:00:50.551Z,613.12
2022-08-19T09:01:50.625Z,596.25
2022-08-19T09:02:51.615Z,551.25
2022-08-19T09:03:50.515Z,511.88
2022-08-19T09:04:50.510Z,478.12
2022-08-19T09:05:50.520Z,461.25
2022-08-19T09:06:50.495Z,466.88
2022-08-19T09:07:50.888Z,483.75
2022-08-19T09:08:50.487Z,511.88
2022-08-19T09:09:50.455Z,556.88
2022-08-19T09:10:55.181Z,590.62
2022-08-19T09:11:51.445Z,630.00
2022-08-19T09:12:50.427Z,669.38
2022-08-19T09:13:50.432Z,697.50
2022-08-19T09:14:51.850Z,720.00
2022-08-19T09:15:50.423Z,736.88
2022-08-19T09:16:50.392Z,753.75
2022-08-19T09:17:50.426Z,753.75
2022-08-19T09:18:50.367Z,770.62
2022-08-19T09:19:50.359Z,810.00
2022-08-19T09:20:50.378Z,855.00
2022-08-19T09:21:50.338Z,916.88
2022-08-19T09:22:50.333Z,1063.12
2022-08-19T09:23:51.016Z,1406.25
2022-08-19T09:24:50.308Z,1350.00
2022-08-19T09:25:50.299Z,1175.62
2022-08-19T09:26:52.629Z,1485.00
2022-08-19T09:27:50.295Z,1316.25
2022-08-19T09:28:50.271Z,1237.50
2022-08-19T09:29:50.271Z,1265.62
2022-08-19T09:30:50.272Z,1642.50
2022-08-19T09:31:50.253Z,1665.00
2022-08-19T09:32:52.892Z,1625.62
2022-08-19T09:33:50.219Z,1445.62
2022-08-19T09:34:51.313Z,1299.38
2022-08-19T09:35:53.103Z,1282.50
2022-08-19T09:36:50.193Z,1265.62
2022-08-19T09:37:50.246Z,1243.12
2022-08-19T09:38:50.202Z,1243.12
2022-08-19T09:39:50.199Z,1192.50
2022-08-19T09:40:50.174Z,1175.62
2022-08-19T09:41:51.287Z,1125.00
2022-08-19T09:42:52.574Z,1074.38
2022-08-19T09:43:50.127Z,1012.50
2022-08-19T09:44:50.110Z,860.62
2022-08-19T09:45:50.126Z,832.50
2022-08-19T09:46:50.091Z,781.88
2022-08-19T09:47:50.140Z,742.50
2022-08-19T09:48:50.072Z,781.88
2022-08-19T09:49:50.065Z,826.88
2022-08-19T09:50:51.707Z,815.62
2022-08-19T09:51:51.156Z,843.75
2022-08-19T09:52:55.335Z,900.00
2022-08-19T09:53:51.041Z,939.38
2022-08-19T09:54:51.986Z,995.62
2022-08-19T09:55:50.006Z,1023.75
2022-08-19T09:56:50.021Z,1001.25
2022-08-19T09:57:50.043Z,984.38
2022-08-19T09:58:49.983Z,945.00
2022-08-19T09:59:49.968Z,928.12
2022-08-19T10:00:51.527Z,916.88
2022-08-19T10:01:49.966Z,916.88
2022-08-19T10:02:49.946Z,916.88
2022-08-19T10:03:49.933Z,911.25
2022-08-19T10:04:49.912Z,871.88
2022-08-19T10:05:49.989Z,855.00
2022-08-19T10:06:53.401Z,866.25
2022-08-19T10:07:49.957Z,894.38
2022-08-19T10:08:50.662Z,888.75
2022-08-19T10:09:49.880Z,995.62
2022-08-19T10:10:49.872Z,1040.62
2022-08-19T10:11:55.029Z,1029.38
2022-08-19T10:12:50.870Z,1029.38
2022-08-19T10:13:49.838Z,1141.88
2022-08-19T10:14:49.821Z,1158.75
2022-08-19T10:15:49.823Z,973.12
2022-08-19T10:16:49.819Z,900.00
2022-08-19T10:17:54.956Z,900.00
2022-08-19T10:18:49.913Z,911.25
2022-08-19T10:19:55.554Z,922.50
2022-08-19T10:20:51.287Z,956.25
2022-08-19T10:21:49.770Z,984.38
2022-08-19T10:22:51.854Z,995.62
2022-08-19T10:23:49.752Z,1001.25
2022-08-19T10:24:49.747Z,1136.25
2022-08-19T10:25:49.728Z,1119.38
2022-08-19T10:26:55.876Z,1108.12
2022-08-19T10:27:52.979Z,1091.25
2022-08-19T10:28:50.689Z,916.88
2022-08-19T10:29:49.705Z,877.50
2022-08-19T10:30:49.664Z,871.88
2022-08-19T10:32:00.126Z,1018.12
2022-08-19T10:32:50.659Z,990.00
2022-08-19T10:33:53.908Z,978.75
2022-08-19T10:34:49.635Z,961.88
2022-08-19T10:35:56.919Z,956.25
2022-08-19T10:36:56.357Z,939.38
2022-08-19T10:37:57.375Z,933.75
2022-08-19T10:38:54.809Z,933.75
2022-08-19T10:39:49.629Z,928.12
2022-08-19T10:40:49.602Z,928.12
2022-08-19T10:41:49.581Z,928.12
2022-08-19T10:42:49.553Z,765.00
2022-08-19T10:43:49.539Z,933.75
2022-08-19T10:44:49.532Z,961.88
2022-08-19T10:45:52.261Z,956.25
2022-08-19T10:46:49.577Z,798.75
2022-08-19T10:47:49.571Z,866.25
2022-08-19T10:48:49.494Z,652.50
2022-08-19T10:49:49.488Z,613.12
2022-08-19T10:50:49.480Z,585.00
2022-08-19T10:51:49.562Z,573.75
2022-08-19T10:52:50.618Z,579.38
2022-08-19T10:53:49.453Z,590.62
2022-08-19T10:54:49.457Z,624.38
2022-08-19T10:55:49.511Z,675.00
2022-08-19T10:56:49.432Z,793.12
2022-08-19T10:58:05.108Z,939.38
2022-08-19T10:58:51.405Z,978.75
2022-08-19T10:59:49.410Z,1012.50
2022-08-19T11:00:49.416Z,1046.25
2022-08-19T11:01:49.420Z,905.62
2022-08-19T11:02:49.379Z,905.62
2022-08-19T11:03:49.359Z,928.12
2022-08-19T11:04:49.353Z,866.25
2022-08-19T11:05:49.351Z,826.88
2022-08-19T11:06:49.351Z,815.62
2022-08-19T11:07:49.369Z,798.75
2022-08-19T11:08:49.314Z,781.88
2022-08-19T11:09:49.304Z,736.88
2022-08-19T11:10:50.393Z,703.12
2022-08-19T11:11:49.281Z,675.00
2022-08-19T11:12:49.483Z,646.88
2022-08-19T11:13:49.268Z,663.75
2022-08-19T11:14:49.255Z,765.00
2022-08-19T11:15:49.246Z,736.88
2022-08-19T11:16:49.233Z,815.62
2022-08-19T11:17:49.247Z,821.25
2022-08-19T11:18:49.222Z,826.88
2022-08-19T11:19:49.226Z,826.88
2022-08-19T11:20:49.206Z,804.38
2022-08-19T11:21:49.189Z,691.88
2022-08-19T11:22:49.196Z,680.62
2022-08-19T11:23:49.164Z,652.50
2022-08-19T11:24:49.162Z,641.25
2022-08-19T11:25:49.189Z,618.75
2022-08-19T11:26:49.143Z,601.88
2022-08-19T11:27:49.129Z,596.25
2022-08-19T11:28:49.110Z,590.62
2022-08-19T11:29:49.117Z,585.00
2022-08-19T11:30:49.113Z,596.25
2022-08-19T11:31:49.098Z,613.12
2022-08-19T11:32:49.656Z,641.25
2022-08-19T11:33:50.071Z,781.88
2022-08-19T11:34:49.107Z,798.75
2022-08-19T11:35:49.048Z,855.00
2022-08-19T11:36:49.038Z,714.38
2022-08-19T11:37:49.043Z,691.88
2022-08-19T11:38:49.030Z,675.00
2022-08-19T11:39:53.619Z,646.88
2022-08-19T11:40:50.032Z,630.00
2022-08-19T11:41:48.987Z,624.38
2022-08-19T11:42:48.982Z,624.38
2022-08-19T11:43:48.970Z,630.00
2022-08-19T11:44:48.955Z,641.25
2022-08-19T11:45:48.974Z,658.12
2022-08-19T11:46:49.007Z,669.38
2022-08-19T11:47:48.996Z,669.38
2022-08-19T11:48:48.920Z,675.00
2022-08-19T11:49:48.925Z,663.75
2022-08-19T11:50:48.901Z,641.25
2022-08-19T11:51:48.883Z,618.75
2022-08-19T11:52:48.877Z,607.50
2022-08-19T11:53:48.874Z,596.25
2022-08-19T11:54:48.889Z,596.25
2022-08-19T11:55:48.845Z,663.75
2022-08-19T11:56:48.872Z,703.12
2022-08-19T11:57:48.844Z,686.25
2022-08-19T11:58:48.818Z,691.88
2022-08-19T11:59:48.809Z,691.88
2022-08-19T12:00:48.803Z,680.62
2022-08-19T12:01:48.811Z,663.75
2022-08-19T12:02:48.792Z,697.50
2022-08-19T12:03:48.862Z,714.38
2022-08-19T12:04:48.769Z,731.25
2022-08-19T12:05:48.784Z,731.25
2022-08-19T12:06:48.751Z,725.62
2022-08-19T12:07:48.736Z,725.62
2022-08-19T12:08:48.732Z,731.25
2022-08-19T12:09:48.868Z,725.62
2022-08-19T12:10:48.719Z,725.62
2022-08-19T12:11:48.710Z,736.88
2022-08-19T12:12:58.879Z,742.50
2022-08-19T12:13:49.672Z,742.50
2022-08-19T12:14:48.666Z,736.88
2022-08-19T12:15:48.655Z,714.38
2022-08-19T12:16:51.455Z,714.38
2022-08-19T12:17:48.694Z,720.00
2022-08-19T12:18:48.637Z,714.38
2022-08-19T12:19:48.621Z,703.12
2022-08-19T12:20:48.603Z,697.50
2022-08-19T12:21:48.659Z,691.88
2022-08-19T12:22:48.605Z,686.25
2022-08-19T12:23:50.788Z,663.75
2022-08-19T12:24:49.569Z,669.38
2022-08-19T12:25:48.554Z,669.38
2022-08-19T12:26:52.948Z,652.50
2022-08-19T12:27:56.802Z,652.50
2022-08-19T12:28:49.520Z,663.75
2022-08-19T12:29:48.531Z,669.38
2022-08-19T12:30:48.503Z,675.00
2022-08-19T12:31:48.492Z,680.62
2022-08-19T12:32:48.489Z,691.88
2022-08-19T12:33:48.478Z,703.12
2022-08-19T12:34:48.485Z,703.12
2022-08-19T12:35:48.471Z,714.38
2022-08-19T12:36:48.449Z,731.25
2022-08-19T12:37:53.558Z,753.75
2022-08-19T12:38:49.424Z,759.38
2022-08-19T12:39:48.469Z,669.38
2022-08-19T12:40:48.406Z,720.00
2022-08-19T12:41:51.555Z,725.62
2022-08-19T12:42:49.408Z,613.12
2022-08-19T12:43:48.405Z,568.12
2022-08-19T12:44:48.371Z,556.88
2022-08-19T12:45:48.382Z,556.88
2022-08-19T12:46:48.368Z,556.88
2022-08-19T12:47:49.700Z,714.38
2022-08-19T12:48:48.320Z,714.38
2022-08-19T12:49:53.760Z,720.00